Terminal Aerodrome Forecast
Issued by NWS

Home | Current Version | Previous Version | Text Only | Print | Product List | Glossary On
Versions: 1 2 3 4 5 6 7 8 9 10 11 12 13 14 15 16 17 18 19 20 21 22
000
FTUS44 KCRP 220527
TAFALI
TAF
KALI 220527Z 2206/2306 06008KT P6SM VCSH SCT005 BKN015
      TEMPO 2206/2210 BKN004
     FM221100 VRB04KT 5SM BR VCSH BKN009
      TEMPO 2211/2214 4SM TSRA BR BKN015CB
     FM221400 12012KT P6SM VCTS BKN030CB
     FM222200 12008KT P6SM SCT020=

USA.gov is the U.S. government's official web portal to all federal, state and local government web resources and services.